Time;durP1;ratioP1;P1;durP2;ratioP2;P2;SDS_P1;SDS_P2;PMS_P1;PMS_P2;Temp;Humidity;BMP_temperature;BMP_pressure;BME280_temperature;BME280_humidity;BME280_pressure;Samples;Min_cycle;Max_cycle;Signal;HPM_P1;HPM_P2
2022/01/06 00:01:06;;;;;;;8.05;1.60;;;;;;;3.38;93.47;101162.50;4907987;29;20036;-77
2022/01/06 00:03:33;;;;;;;15.07;2.13;;;;;;;3.39;93.14;101170.22;4912497;29;20159;-77
2022/01/06 00:06:06;;;;;;;9.93;1.35;;;;;;;3.37;94.21;101181.69;4912875;29;20032;-77
2022/01/06 00:08:34;;;;;;;7.22;2.00;;;;;;;3.21;94.18;101169.59;4916973;29;20378;-77
2022/01/06 00:11:00;;;;;;;9.07;1.58;;;;;;;3.23;94.06;101178.16;4914181;29;20036;-77
2022/01/06 00:13:33;;;;;;;6.32;1.00;;;;;;;3.25;93.23;101189.34;4912926;29;20043;-77
2022/01/06 00:16:32;;;;;;;11.27;1.25;;;;;;;3.21;93.67;101195.69;4926220;29;20036;-77
2022/01/06 00:24:23;;;;;;;7.10;1.45;;;;;;;2.94;93.94;101184.31;4907795;29;20116;-77
2022/01/06 00:26:50;;;;;;;7.25;1.35;;;;;;;3.05;92.99;101205.38;4910344;29;20092;-77
2022/01/06 00:29:19;;;;;;;3.80;1.10;;;;;;;3.05;93.34;101205.38;4913279;29;20029;-77
2022/01/06 00:31:45;;;;;;;3.63;1.25;;;;;;;2.98;92.02;101198.84;4913296;29;20034;-77
2022/01/06 00:34:10;;;;;;;3.40;0.95;;;;;;;2.99;92.22;101209.19;4910038;29;20032;-77
2022/01/06 00:36:41;;;;;;;6.00;0.80;;;;;;;2.98;92.27;101217.09;4912211;29;20510;-77
2022/01/06 00:39:08;;;;;;;11.90;1.73;;;;;;;2.86;92.62;101203.88;4913266;29;20044;-77
2022/01/06 00:41:35;;;;;;;3.60;0.60;;;;;;;2.98;93.11;101227.53;4909361;29;20059;-77
2022/01/06 00:44:02;;;;;;;7.55;1.63;;;;;;;3.05;93.83;101239.28;4912772;29;20052;-77
2022/01/06 00:46:28;;;;;;;9.48;0.77;;;;;;;3.05;93.16;101239.28;4910275;29;20043;-77
2022/01/06 00:48:53;;;;;;;4.07;0.85;;;;;;;2.97;93.09;101231.06;4912413;29;20028;-77
2022/01/06 00:51:19;;;;;;;2.70;0.65;;;;;;;3.00;94.10;101236.09;4905794;29;20533;-77
2022/01/06 00:53:44;;;;;;;8.57;0.90;;;;;;;3.02;94.17;101242.06;4909731;29;20024;-77
2022/01/06 00:56:10;;;;;;;2.75;0.65;;;;;;;3.01;93.37;101248.22;4899515;29;20083;-77
2022/01/06 00:58:36;;;;;;;2.00;0.82;;;;;;;2.98;93.06;101251.00;4921002;29;20064;-78
2022/01/06 01:01:01;;;;;;;8.68;1.70;;;;;;;2.90;92.99;101241.03;4909455;29;20092;-77
2022/01/06 01:03:27;;;;;;;5.75;0.82;;;;;;;2.96;92.51;101258.06;4913152;29;20095;-77
2022/01/06 01:05:55;;;;;;;20.02;1.05;;;;;;;2.79;93.14;101227.78;4909221;29;21443;-77
2022/01/06 01:08:22;;;;;;;2.65;0.88;;;;;;;2.84;92.68;101242.22;4906177;29;20043;-77
2022/01/06 01:10:50;;;;;;;2.50;0.63;;;;;;;2.98;92.64;101264.84;4908179;29;20034;-77
2022/01/06 01:13:16;;;;;;;1.73;0.50;;;;;;;2.93;92.08;101260.88;4913062;29;20033;-77
2022/01/06 01:15:52;;;;;;;3.58;0.60;;;;;;;2.98;91.53;101269.25;4909129;29;20039;-77
2022/01/06 01:18:19;;;;;;;2.33;0.68;;;;;;;2.94;91.78;101279.03;4911750;29;20037;-77
2022/01/06 01:20:46;;;;;;;8.55;3.03;;;;;;;2.88;91.75;101264.56;4913612;29;20111;-77
2022/01/06 01:23:12;;;;;;;2.97;0.60;;;;;;;2.92;91.62;101274.81;4916077;29;20037;-77
2022/01/06 01:25:37;;;;;;;6.28;0.73;;;;;;;2.88;92.73;101272.41;4909992;29;20067;-77
2022/01/06 01:28:04;;;;;;;4.75;0.88;;;;;;;2.83;91.61;101278.78;4912361;29;20132;-77
2022/01/06 01:30:38;;;;;;;6.75;1.27;;;;;;;2.78;92.89;101289.50;4910133;29;20040;-77
2022/01/06 01:33:05;;;;;;;4.63;0.90;;;;;;;2.73;93.05;101295.91;4911205;29;20051;-77
2022/01/06 01:35:32;;;;;;;5.25;1.50;;;;;;;2.69;92.08;101300.44;4908323;29;20036;-77
2022/01/06 01:37:59;;;;;;;10.07;0.85;;;;;;;2.65;92.20;101304.16;4908010;29;20045;-77
2022/01/06 01:40:25;;;;;;;5.30;0.50;;;;;;;2.62;92.21;101304.34;4915308;29;20551;-77
2022/01/06 01:42:51;;;;;;;2.00;0.57;;;;;;;2.56;92.83;101305.53;4913070;29;20032;-79
2022/01/06 01:45:17;;;;;;;5.22;1.15;;;;;;;2.44;93.14;101295.81;4910847;29;20031;-77
2022/01/06 01:47:45;;;;;;;5.75;0.95;;;;;;;2.47;93.11;101313.88;4914564;29;20426;-77
2022/01/06 01:50:15;;;;;;;3.00;0.55;;;;;;;2.39;92.13;101313.44;4913269;29;20512;-77
2022/01/06 01:52:43;;;;;;;5.47;0.68;;;;;;;2.32;93.13;101318.16;4910967;29;20031;-77
2022/01/06 01:55:11;;;;;;;8.13;1.35;;;;;;;2.31;93.23;101329.53;4909410;29;20110;-77
2022/01/06 01:57:36;;;;;;;5.78;0.77;;;;;;;2.14;93.46;101313.97;4915410;29;20508;-78
2022/01/06 02:00:05;;;;;;;4.05;0.70;;;;;;;2.20;93.01;101330.09;4911497;29;20039;-77
2022/01/06 02:02:30;;;;;;;4.30;1.35;;;;;;;2.21;92.99;101344.78;4907662;29;20035;-77
2022/01/06 02:04:56;;;;;;;6.97;0.98;;;;;;;2.16;93.76;101354.63;4912351;29;20060;-77
2022/01/06 02:07:21;;;;;;;3.65;0.90;;;;;;;2.08;93.98;101348.16;4895599;29;20488;-76
2022/01/06 02:09:47;;;;;;;0.70;0.32;;;;;;;2.09;94.30;101360.25;4909272;29;20036;-76
2022/01/06 02:12:26;;;;;;;3.92;0.65;;;;;;;2.00;94.37;101352.03;4909219;29;20101;-76
2022/01/06 02:14:52;;;;;;;7.40;1.15;;;;;;;2.03;94.36;101358.81;4925172;29;20609;-79
2022/01/06 02:17:17;;;;;;;6.57;0.77;;;;;;;2.06;94.93;101366.47;4913902;29;20049;-77
2022/01/06 02:20:04;;;;;;;6.43;1.25;;;;;;;1.96;94.77;101349.66;4912030;29;20091;-77
2022/01/06 02:22:29;;;;;;;11.80;0.98;;;;;;;2.00;94.61;101357.22;4906629;29;20060;-76
2022/01/06 02:24:55;;;;;;;6.53;1.10;;;;;;;2.09;95.03;101363.72;4895786;29;20443;-76
2022/01/06 02:27:21;;;;;;;14.13;1.40;;;;;;;2.22;95.16;101382.09;4909849;29;20047;-77
2022/01/06 02:29:50;;;;;;;6.00;1.30;;;;;;;2.26;95.62;101381.00;4911037;29;20035;-77
2022/01/06 02:32:17;;;;;;;5.72;2.00;;;;;;;2.23;95.42;101395.03;4906926;29;20384;-77
2022/01/06 02:34:47;;;;;;;7.22;1.13;;;;;;;2.29;95.80;101388.66;4913310;29;20044;-77
2022/01/06 02:37:14;;;;;;;12.07;1.03;;;;;;;2.31;95.45;101402.44;4922550;29;20135;-77
2022/01/06 02:39:43;;;;;;;4.78;1.20;;;;;;;2.30;95.70;101413.78;4908197;29;20801;-76
2022/01/06 02:42:09;;;;;;;3.85;0.82;;;;;;;2.21;95.52;101412.50;4909921;29;20071;-76
2022/01/06 02:44:38;;;;;;;6.95;0.70;;;;;;;2.14;95.81;101412.94;4914409;29;20033;-79
2022/01/06 02:47:05;;;;;;;3.45;0.43;;;;;;;2.00;95.58;101414.50;4910609;29;20519;-77
2022/01/06 02:49:31;;;;;;;2.80;0.47;;;;;;;1.49;95.32;101340.00;4906720;29;20046;-77
2022/01/06 02:51:56;;;;;;;4.88;1.05;;;;;;;1.94;94.97;101421.78;4909802;29;20024;-77
2022/01/06 02:54:22;;;;;;;2.03;0.80;;;;;;;1.82;95.61;101412.84;4909704;29;20028;-77
2022/01/06 02:56:48;;;;;;;1.13;0.50;;;;;;;1.89;95.53;101437.63;4924344;29;20039;-77
2022/01/06 02:59:14;;;;;;;4.53;0.80;;;;;;;1.75;95.39;101424.50;4909266;29;20124;-77
2022/01/06 03:01:42;;;;;;;5.20;0.45;;;;;;;1.77;95.74;101430.47;4912555;29;20040;-77
2022/01/06 03:04:09;;;;;;;4.93;0.63;;;;;;;1.74;96.37;101441.88;4912925;29;20577;-77
2022/01/06 03:06:34;;;;;;;1.42;0.98;;;;;;;1.70;96.03;101439.50;4914572;29;20131;-77
2022/01/06 03:09:00;;;;;;;2.40;0.40;;;;;;;1.42;95.92;101407.09;4910369;29;20798;-78
2022/01/06 03:11:26;;;;;;;5.80;0.80;;;;;;;1.40;96.87;101417.56;4910684;29;20638;-78
2022/01/06 03:13:55;;;;;;;5.82;0.98;;;;;;;1.50;97.51;101440.50;4910638;29;20056;-77
2022/01/06 03:16:20;;;;;;;3.63;0.95;;;;;;;1.31;96.98;101414.59;4909086;29;20036;-77
2022/01/06 03:18:46;;;;;;;5.18;0.80;;;;;;;1.30;97.59;101420.69;4914349;29;20043;-77
2022/01/06 03:21:12;;;;;;;1.80;0.98;;;;;;;1.42;97.62;101446.09;4910683;29;20036;-77
2022/01/06 03:23:38;;;;;;;3.55;0.52;;;;;;;1.41;97.25;101444.41;4908000;29;20549;-77
2022/01/06 03:26:03;;;;;;;4.35;0.90;;;;;;;1.41;97.94;101447.00;4908259;29;20040;-77
2022/01/06 03:28:29;;;;;;;3.13;0.73;;;;;;;1.36;97.98;101449.00;4911350;29;20028;-77
2022/01/06 03:30:54;;;;;;;1.42;0.50;;;;;;;1.34;98.09;101450.84;4909279;29;20046;-78
2022/01/06 03:33:19;;;;;;;4.30;0.75;;;;;;;1.26;98.48;101455.56;4914758;29;20044;-77
2022/01/06 03:35:45;;;;;;;5.35;0.63;;;;;;;1.06;98.34;101439.19;4910303;29;20032;-77
2022/01/06 03:38:10;;;;;;;3.63;0.75;;;;;;;1.13;98.71;101456.19;4906329;29;20112;-77
2022/01/06 03:40:37;;;;;;;5.60;0.98;;;;;;;1.06;98.78;101448.75;4907604;29;20092;-77
2022/01/06 03:43:02;;;;;;;5.25;0.98;;;;;;;1.09;99.29;101458.97;4907199;29;20032;-77
2022/01/06 03:45:27;;;;;;;6.10;0.95;;;;;;;1.02;99.73;101461.03;4923458;29;20035;-77
2022/01/06 03:47:53;;;;;;;2.25;0.68;;;;;;;0.95;99.15;101457.06;4912858;29;20040;-78
2022/01/06 03:50:18;;;;;;;6.47;0.88;;;;;;;0.99;99.36;101461.19;4908495;29;20481;-78
2022/01/06 03:52:45;;;;;;;5.70;1.48;;;;;;;0.95;100.00;101457.06;4908167;29;20028;-77
2022/01/06 03:55:16;;;;;;;3.05;0.40;;;;;;;0.90;99.88;101459.03;4909596;29;20059;-77
2022/01/06 03:57:41;;;;;;;;;;;;;;;0.88;99.64;101481.66;4912727;29;20468;-77
2022/01/06 04:00:10;;;;;;;4.40;0.98;;;;;;;0.68;99.95;101452.25;4908661;29;20005;-77
2022/01/06 04:02:36;;;;;;;7.82;1.73;;;;;;;0.75;99.83;101464.03;4907371;29;20119;-77
2022/01/06 04:05:03;;;;;;;8.57;1.08;;;;;;;0.85;99.95;101487.84;4912021;29;20083;-77
2022/01/06 04:07:28;;;;;;;1.65;0.52;;;;;;;0.77;99.30;101475.19;4907850;29;20051;-77
2022/01/06 04:09:54;;;;;;;2.60;0.77;;;;;;;0.85;98.75;101492.19;4907605;29;20036;-77
2022/01/06 04:12:19;;;;;;;8.60;1.13;;;;;;;0.85;99.03;101494.78;4913929;29;20036;-77
2022/01/06 04:14:46;;;;;;;4.90;0.85;;;;;;;0.87;98.94;101495.53;4921914;29;20484;-77
2022/01/06 04:17:11;;;;;;;8.25;2.10;;;;;;;0.72;98.59;101477.19;4907499;29;20038;-77
2022/01/06 04:19:36;;;;;;;5.50;1.73;;;;;;;0.86;98.35;101494.72;4905554;29;20088;-77
2022/01/06 04:22:05;;;;;;;4.03;1.48;;;;;;;0.88;97.93;101497.25;4911308;29;20036;-77
2022/01/06 04:24:31;;;;;;;3.22;0.90;;;;;;;0.88;97.37;101505.03;4909530;29;20778;-77
2022/01/06 04:26:57;;;;;;;6.90;0.85;;;;;;;0.80;97.40;101495.00;4910909;29;20054;-78
2022/01/06 04:29:22;;;;;;;10.15;1.73;;;;;;;0.88;97.37;101507.66;4907298;29;20068;-77
2022/01/06 04:31:48;;;;;;;4.93;1.20;;;;;;;0.73;97.22;101481.44;4901461;29;20021;-77
2022/01/06 04:34:13;;;;;;;10.20;1.52;;;;;;;0.74;96.87;101490.06;4912785;29;20104;-77
2022/01/06 04:36:45;;;;;;;6.93;1.80;;;;;;;0.77;96.79;101506.38;4913385;29;20051;-77
2022/01/06 04:39:11;;;;;;;6.90;0.82;;;;;;;0.74;96.63;101506.53;4913263;29;20096;-77
2022/01/06 04:41:36;;;;;;;9.70;1.67;;;;;;;0.84;97.21;101516.50;4903253;29;20036;-77
2022/01/06 04:44:01;;;;;;;8.27;1.90;;;;;;;0.70;97.04;101494.59;4917664;29;20072;-77
2022/01/06 04:46:27;;;;;;;9.68;1.13;;;;;;;0.85;96.70;101519.03;4882666;29;20032;-78
2022/01/06 04:48:52;;;;;;;7.10;1.00;;;;;;;0.83;97.66;101520.84;4913989;29;20461;-77
2022/01/06 04:51:17;;;;;;;9.95;1.75;;;;;;;0.87;97.63;101521.53;4911697;29;20032;-77
2022/01/06 04:53:43;;;;;;;3.95;1.25;;;;;;;0.87;97.33;101530.19;4909262;29;20032;-77
2022/01/06 04:56:08;;;;;;;5.85;1.42;;;;;;;0.87;97.82;101537.13;4911467;29;20069;-77
2022/01/06 04:58:34;;;;;;;6.10;0.80;;;;;;;0.88;97.26;101536.22;4926747;29;20044;-77
2022/01/06 05:01:00;;;;;;;7.28;1.13;;;;;;;0.87;97.66;101537.13;4915704;29;20051;-78
2022/01/06 05:03:25;;;;;;;9.77;1.30;;;;;;;0.65;97.37;101495.69;4913882;29;20036;-76
2022/01/06 05:05:50;;;;;;;25.25;2.03;;;;;;;0.91;97.81;101533.47;4913203;29;20056;-76
2022/01/06 05:08:16;;;;;;;6.57;1.40;;;;;;;0.75;97.90;101517.75;4911159;29;20058;-77
2022/01/06 05:10:41;;;;;;;10.95;1.75;;;;;;;0.93;96.87;101542.88;4905124;29;20040;-77
2022/01/06 05:13:07;;;;;;;10.80;1.35;;;;;;;0.77;96.90;101521.13;4911125;29;20127;-77
2022/01/06 05:15:32;;;;;;;4.95;1.30;;;;;;;0.91;97.38;101546.47;4913860;29;20040;-77
2022/01/06 05:17:57;;;;;;;13.38;1.67;;;;;;;0.90;96.52;101539.59;4926355;29;20035;-77
2022/01/06 05:20:25;;;;;;;10.55;1.05;;;;;;;0.88;96.49;101544.03;4909793;29;20131;-77
2022/01/06 05:22:54;;;;;;;8.15;2.65;;;;;;;0.82;96.06;101543.38;4914670;29;20063;-77
2022/01/06 05:25:24;;;;;;;9.57;1.45;;;;;;;0.73;96.52;101528.22;4912536;29;20500;-77
2022/01/06 05:27:50;;;;;;;14.23;1.55;;;;;;;0.85;95.74;101554.53;4909024;29;20391;-77
2022/01/06 05:30:15;;;;;;;13.02;1.67;;;;;;;0.81;96.19;101559.06;4912682;29;20043;-77
2022/01/06 05:32:40;;;;;;;5.35;1.15;;;;;;;0.59;96.09;101534.03;4895760;29;20044;-77
2022/01/06 05:35:06;;;;;;;7.40;0.82;;;;;;;0.73;95.77;101566.34;4915722;29;20024;-76
2022/01/06 05:37:31;;;;;;;17.70;1.42;;;;;;;0.52;95.36;101553.41;4905480;29;20109;-76
2022/01/06 05:39:57;;;;;;;10.85;1.38;;;;;;;0.51;96.16;101572.50;4908109;29;20035;-76
2022/01/06 05:42:22;;;;;;;11.73;1.92;;;;;;;0.31;95.90;101555.19;4913730;29;20033;-76
2022/01/06 05:44:48;;;;;;;7.68;1.50;;;;;;;0.35;96.75;101574.94;4895775;29;20429;-76
2022/01/06 05:47:13;;;;;;;9.55;1.60;;;;;;;0.25;96.44;101559.81;4915870;29;20055;-76
2022/01/06 05:49:38;;;;;;;6.45;1.15;;;;;;;0.32;97.23;101569.84;4901024;29;20047;-77
2022/01/06 05:52:04;;;;;;;5.03;1.50;;;;;;;0.30;96.84;101584.66;4907935;29;20064;-76
2022/01/06 05:54:30;;;;;;;10.70;1.92;;;;;;;0.08;96.95;101552.72;4913579;29;20048;-76
2022/01/06 05:56:55;;;;;;;5.80;1.20;;;;;;;0.13;97.34;101556.84;4902966;29;20032;-76
2022/01/06 05:59:20;;;;;;;9.88;1.23;;;;;;;0.21;97.58;101579.84;4915172;29;20547;-76
2022/01/06 06:01:46;;;;;;;6.30;1.50;;;;;;;0.24;97.63;101592.72;4912023;29;20495;-76
2022/01/06 06:04:12;;;;;;;6.78;1.70;;;;;;;0.15;96.99;101598.28;4916136;29;20132;-76
2022/01/06 06:06:37;;;;;;;7.18;0.93;;;;;;;0.07;97.40;101602.97;4912643;29;20381;-77
2022/01/06 06:09:02;;;;;;;4.72;1.25;;;;;;;-0.18;97.60;101565.03;4904734;29;20032;-76
2022/01/06 06:11:28;;;;;;;7.30;1.88;;;;;;;-0.05;97.88;101599.94;4902135;29;20036;-76
2022/01/06 06:13:53;;;;;;;11.38;1.83;;;;;;;-0.19;98.30;101584.13;4914803;29;20114;-76
2022/01/06 06:16:19;;;;;;;6.35;1.67;;;;;;;-0.13;98.57;101602.03;4907087;29;20039;-76
2022/01/06 06:18:44;;;;;;;6.05;0.98;;;;;;;-0.19;99.16;101615.25;4909195;29;20024;-76
2022/01/06 06:21:10;;;;;;;5.75;1.88;;;;;;;-0.25;99.61;101616.34;4905361;29;20024;-76
2022/01/06 06:23:35;;;;;;;8.82;1.63;;;;;;;-0.25;99.95;101618.09;4905781;29;20044;-76
2022/01/06 06:26:00;;;;;;;11.05;1.60;;;;;;;-0.26;100.00;101606.00;4912704;29;20048;-76
2022/01/06 06:28:26;;;;;;;11.25;1.42;;;;;;;-0.23;100.00;101621.47;4895957;29;20036;-76
2022/01/06 06:30:51;;;;;;;3.53;1.17;;;;;;;-0.18;100.00;101626.47;4903200;29;20034;-76
2022/01/06 06:33:17;;;;;;;7.25;1.55;;;;;;;-0.16;100.00;101633.28;4907302;29;20067;-76
2022/01/06 06:35:42;;;;;;;6.85;1.23;;;;;;;-0.21;100.00;101630.03;4909351;29;20028;-76
2022/01/06 06:38:07;;;;;;;9.18;1.50;;;;;;;-0.46;99.92;101599.91;4904153;29;20040;-76
2022/01/06 06:40:33;;;;;;;13.52;2.13;;;;;;;-0.21;100.00;101630.88;4907987;29;20547;-76
2022/01/06 06:42:58;;;;;;;3.95;1.27;;;;;;;-0.21;100.00;101638.66;4913136;29;20386;-76
2022/01/06 06:45:24;;;;;;;10.88;2.42;;;;;;;-0.21;100.00;101640.41;4905713;29;20489;-76
2022/01/06 06:47:51;;;;;;;7.63;1.27;;;;;;;-0.46;99.71;101609.41;4905541;29;20106;-76
2022/01/06 06:50:17;;;;;;;6.03;1.58;;;;;;;-0.38;100.00;101635.88;4906527;29;20042;-76
2022/01/06 06:52:44;;;;;;;9.65;1.38;;;;;;;-0.32;99.59;101648.63;4905424;29;20397;-76
2022/01/06 06:55:13;;;;;;;6.70;1.80;;;;;;;-0.43;100.00;101643.84;4906972;29;20040;-76
2022/01/06 06:57:38;;;;;;;6.68;1.42;;;;;;;-0.35;100.00;101651.31;4910092;29;20039;-77
2022/01/06 07:00:06;;;;;;;3.95;2.38;;;;;;;-0.51;100.00;101626.91;4911997;29;20040;-76
2022/01/06 07:02:32;;;;;;;9.02;1.60;;;;;;;-0.31;100.00;101657.25;4905996;29;20123;-76
2022/01/06 07:04:58;;;;;;;14.10;2.17;;;;;;;-0.31;100.00;101652.06;4918562;29;20059;-76
2022/01/06 07:07:23;;;;;;;16.60;3.70;;;;;;;-0.46;100.00;101641.38;4903521;29;20529;-76
2022/01/06 07:09:50;;;;;;;6.70;1.98;;;;;;;-0.46;100.00;101646.56;4892023;29;20044;-76
2022/01/06 07:12:15;;;;;;;10.80;2.28;;;;;;;-0.40;100.00;101665.38;4918378;29;20056;-76
2022/01/06 07:14:41;;;;;;;4.03;1.73;;;;;;;-0.42;100.00;101668.03;4904872;29;20079;-76
2022/01/06 07:17:06;;;;;;;6.38;1.88;;;;;;;-0.41;100.00;101672.31;4907023;29;20150;-76
2022/01/06 07:19:32;;;;;;;6.35;1.17;;;;;;;-0.46;100.00;101663.84;4908413;29;20040;-76
2022/01/06 07:21:57;;;;;;;10.70;1.95;;;;;;;-0.37;100.00;101684.28;4904455;29;20040;-76
2022/01/06 07:24:22;;;;;;;15.60;3.88;;;;;;;-0.37;100.00;101686.00;4909267;29;20458;-76
2022/01/06 07:26:48;;;;;;;11.07;3.35;;;;;;;-0.49;100.00;101667.41;4908809;29;20039;-76
2022/01/06 07:29:15;;;;;;;15.75;4.30;;;;;;;-0.47;100.00;101681.19;4909155;29;20044;-77
2022/01/06 07:31:40;;;;;;;12.45;1.83;;;;;;;-0.39;100.00;101705.97;4911226;29;20092;-77
2022/01/06 07:34:06;;;;;;;14.52;1.80;;;;;;;-0.49;100.00;101701.13;4911768;29;20040;-77
2022/01/06 07:36:31;;;;;;;13.10;1.58;;;;;;;-0.63;100.00;101690.44;4905728;29;20469;-76
2022/01/06 07:38:56;;;;;;;12.85;2.20;;;;;;;-0.65;100.00;101698.28;4906607;29;20036;-76
2022/01/06 07:41:22;;;;;;;3.45;1.50;;;;;;;-0.57;100.00;101718.72;4900302;29;20056;-77
2022/01/06 07:43:47;;;;;;;5.28;1.75;;;;;;;-0.57;100.00;101716.13;4902876;29;20036;-76
2022/01/06 07:46:12;;;;;;;5.55;1.58;;;;;;;-0.63;100.00;101703.41;4915664;29;20564;-76
2022/01/06 07:48:57;;;;;;;8.98;1.95;;;;;;;-0.75;100.00;101691.72;4909236;29;20032;-77
2022/01/06 07:51:27;;;;;;;6.18;1.02;;;;;;;-0.69;100.00;101699.28;4905487;29;20024;-77
2022/01/06 07:53:53;;;;;;;12.27;1.98;;;;;;;-0.49;100.00;101724.47;4906030;29;20040;-77
2022/01/06 07:56:19;;;;;;;10.52;2.25;;;;;;;-0.43;100.00;101726.00;4908114;29;20040;-77
2022/01/06 07:58:45;;;;;;;7.53;2.08;;;;;;;-0.41;100.00;101731.97;4909301;29;20048;-77
2022/01/06 08:01:11;;;;;;;6.88;1.58;;;;;;;-0.40;100.00;101738.00;4902946;29;20100;-77
2022/01/06 08:03:37;;;;;;;35.22;2.67;;;;;;;-0.35;100.00;101746.44;4907186;29;20157;-77
2022/01/06 08:06:02;;;;;;;5.90;1.77;;;;;;;-0.35;100.00;101731.72;4912764;29;20055;-77
2022/01/06 08:08:28;;;;;;;8.63;1.48;;;;;;;-0.18;100.00;101733.69;4910694;29;20064;-78
2022/01/06 08:10:53;;;;;;;10.57;2.60;;;;;;;-0.10;100.00;101747.22;4912318;29;20035;-77
2022/01/06 08:13:19;;;;;;;8.07;4.13;;;;;;;-0.05;100.00;101742.69;4911726;29;20055;-77
2022/01/06 08:15:44;;;;;;;8.30;2.90;;;;;;;-0.05;100.00;101737.47;4909937;29;20039;-78
2022/01/06 08:18:10;;;;;;;5.35;2.20;;;;;;;0.01;99.66;101743.38;4910130;29;20024;-77
2022/01/06 08:20:36;;;;;;;3.35;1.77;;;;;;;0.07;99.35;101743.97;4909809;29;20044;-77
2022/01/06 08:23:02;;;;;;;8.95;2.78;;;;;;;0.16;99.06;101753.16;4912054;29;20154;-77
2022/01/06 08:25:28;;;;;;;13.43;2.35;;;;;;;0.11;99.00;101729.09;4911008;29;20031;-77
2022/01/06 08:27:53;;;;;;;7.57;3.70;;;;;;;0.35;98.83;101754.09;4908380;29;20040;-77
2022/01/06 08:30:19;;;;;;;11.93;4.30;;;;;;;0.35;98.40;101745.47;4894025;29;20033;-78
2022/01/06 08:32:44;;;;;;;16.88;3.60;;;;;;;0.54;97.79;101774.13;4905143;29;20032;-77
2022/01/06 08:35:10;;;;;;;10.45;3.85;;;;;;;0.52;97.92;101749.97;4891734;29;20086;-76
2022/01/06 08:37:35;;;;;;;10.63;2.08;;;;;;;0.74;97.71;101765.50;4909611;29;20046;-76
2022/01/06 08:40:02;;;;;;;6.60;2.35;;;;;;;1.00;98.16;101764.38;4910630;29;20047;-76
2022/01/06 08:42:27;;;;;;;9.98;3.25;;;;;;;1.23;97.33;101773.81;4910077;29;20036;-77
2022/01/06 08:44:53;;;;;;;12.23;2.90;;;;;;;1.41;97.20;101759.16;4909601;29;20050;-77
2022/01/06 08:47:18;;;;;;;19.67;6.25;;;;;;;1.66;96.22;101755.47;4911033;29;20047;-77
2022/01/06 08:49:44;;;;;;;10.18;5.25;;;;;;;1.87;94.73;101756.19;4907348;29;20040;-77
2022/01/06 08:52:09;;;;;;;22.33;4.93;;;;;;;1.85;93.37;101736.31;4894516;29;20417;-77
2022/01/06 08:54:35;;;;;;;12.93;4.07;;;;;;;2.02;91.90;101752.88;4909114;29;20079;-77
2022/01/06 08:57:00;;;;;;;10.82;3.50;;;;;;;2.08;91.95;101756.97;4905591;29;20238;-77
2022/01/06 09:02:47;;;;;;;19.15;2.60;;;;;;;2.09;90.60;101732.59;4910439;29;20062;-77
2022/01/06 09:05:14;;;;;;;11.77;2.13;;;;;;;2.13;90.07;101736.75;4897452;29;20056;-77
2022/01/06 09:07:40;;;;;;;6.88;2.08;;;;;;;2.15;89.80;101747.94;4926212;29;20046;-77
2022/01/06 09:10:05;;;;;;;10.73;2.13;;;;;;;2.21;89.60;101751.09;4920178;29;20040;-77
2022/01/06 09:12:31;;;;;;;7.70;1.70;;;;;;;2.42;89.36;101757.03;4916513;29;20739;-76
2022/01/06 09:14:56;;;;;;;21.98;2.45;;;;;;;2.67;88.33;101735.78;4922602;29;20036;-76
2022/01/06 09:17:22;;;;;;;8.45;1.70;;;;;;;2.80;87.23;101754.28;4926587;29;20123;-77
2022/01/06 09:19:47;;;;;;;14.05;1.90;;;;;;;2.99;86.84;101758.56;4918859;29;20267;-76
2022/01/06 09:22:12;;;;;;;5.30;1.52;;;;;;;3.45;86.46;101759.59;4922785;29;20514;-76
2022/01/06 09:24:38;;;;;;;7.18;1.58;;;;;;;3.64;85.23;101756.03;4927658;29;20059;-76
2022/01/06 09:27:05;;;;;;;17.27;1.80;;;;;;;3.45;84.07;101743.94;4923458;29;20050;-76
2022/01/06 09:29:30;;;;;;;6.75;1.73;;;;;;;3.45;84.10;101758.78;4929732;29;20115;-76
2022/01/06 09:31:56;;;;;;;13.73;2.63;;;;;;;3.76;86.01;101757.94;4923347;29;20134;-78
2022/01/06 09:34:21;;;;;;;8.50;2.90;;;;;;;4.49;86.89;101753.00;4922894;29;20514;-77
2022/01/06 09:36:46;;;;;;;4.65;1.60;;;;;;;5.42;83.48;101758.84;4927116;29;20044;-77
2022/01/06 09:39:12;;;;;;;9.55;2.00;;;;;;;6.69;79.17;101756.91;4910004;29;20518;-77
2022/01/06 09:41:39;;;;;;;5.55;2.00;;;;;;;8.51;77.77;101764.22;4924001;29;20039;-77
2022/01/06 09:44:05;;;;;;;7.72;2.17;;;;;;;10.10;71.47;101744.88;4909505;29;20089;-76
2022/01/06 09:46:31;;;;;;;6.00;1.40;;;;;;;11.57;66.53;101762.53;4910515;29;20039;-76
2022/01/06 09:49:00;;;;;;;12.43;3.47;;;;;;;12.71;60.88;101777.84;4921294;29;20032;-76
2022/01/06 09:51:28;;;;;;;17.05;4.43;;;;;;;13.27;56.26;101778.03;4921500;29;20488;-76
2022/01/06 09:53:56;;;;;;;13.15;3.05;;;;;;;13.97;57.36;101758.00;4925440;29;20471;-76
2022/01/06 09:56:22;;;;;;;12.82;1.98;;;;;;;14.79;55.29;101771.22;4921386;29;20032;-76
2022/01/06 09:58:48;;;;;;;6.10;1.90;;;;;;;15.55;54.37;101781.13;4907020;29;20035;-76
2022/01/06 10:01:14;;;;;;;5.32;1.55;;;;;;;15.97;52.78;101777.63;4927278;29;20077;-76
2022/01/06 10:03:44;;;;;;;7.53;2.17;;;;;;;16.60;51.04;101796.69;4925046;29;20059;-76
2022/01/06 10:06:16;;;;;;;13.18;2.45;;;;;;;17.09;49.44;101790.50;4927021;29;20464;-76
2022/01/06 10:08:49;;;;;;;8.15;1.85;;;;;;;17.62;48.87;101789.84;4922848;29;20042;-76
2022/01/06 10:11:19;;;;;;;6.30;1.65;;;;;;;17.74;47.67;101787.59;4926062;29;20046;-76
2022/01/06 10:13:53;;;;;;;8.55;1.90;;;;;;;17.69;45.90;101790.78;4910556;29;20040;-77
2022/01/06 10:16:20;;;;;;;7.82;2.55;;;;;;;17.99;45.87;101782.19;4924182;29;20417;-77
2022/01/06 10:19:03;;;;;;;9.52;2.08;;;;;;;17.17;44.37;101777.97;4923844;29;20028;-77
2022/01/06 10:21:31;;;;;;;10.65;2.58;;;;;;;16.73;46.29;101789.03;4905823;29;20543;-76
2022/01/06 10:24:00;;;;;;;14.05;3.00;;;;;;;17.03;45.51;101778.69;4925399;29;20114;-78
2022/01/06 10:26:26;;;;;;;16.05;2.97;;;;;;;17.30;46.03;101779.28;4926704;29;20109;-78
2022/01/06 10:28:51;;;;;;;11.20;2.50;;;;;;;17.89;43.57;101758.34;4919078;29;20031;-78
2022/01/06 10:31:22;;;;;;;8.70;2.45;;;;;;;17.10;45.50;101779.66;4871361;29;20123;-78
2022/01/06 10:33:48;;;;;;;7.97;2.38;;;;;;;17.74;44.91;101771.59;4919100;29;20036;-78
2022/01/06 10:36:13;;;;;;;7.65;2.10;;;;;;;17.76;42.66;101772.25;4910696;29;20142;-78
2022/01/06 10:38:39;;;;;;;12.30;2.13;;;;;;;15.98;45.39;101758.00;4917988;29;20047;-77
2022/01/06 10:41:14;;;;;;;8.75;2.10;;;;;;;15.15;46.71;101777.25;4908942;29;20575;-77
2022/01/06 10:43:40;;;;;;;8.73;2.00;;;;;;;14.90;48.62;101778.09;4924539;29;20082;-78
2022/01/06 10:46:07;;;;;;;12.20;2.22;;;;;;;14.03;49.02;101763.72;4927795;29;20067;-78
2022/01/06 10:48:33;;;;;;;9.60;2.00;;;;;;;13.25;50.70;101767.56;4925834;29;20035;-78
2022/01/06 10:51:00;;;;;;;9.23;2.00;;;;;;;13.04;52.16;101761.63;4921112;29;20090;-79
2022/01/06 10:53:26;;;;;;;6.65;1.75;;;;;;;13.70;52.94;101755.41;4907220;29;20031;-82
2022/01/06 10:55:51;;;;;;;13.25;2.15;;;;;;;14.59;49.86;101759.94;4916162;29;20028;-82
2022/01/06 10:58:19;;;;;;;9.15;2.17;;;;;;;13.07;51.32;101729.53;4923874;29;20106;-84
2022/01/06 11:00:49;;;;;;;7.88;1.83;;;;;;;12.93;54.38;101766.13;4907933;29;20035;-80
2022/01/06 11:03:24;;;;;;;9.43;2.00;;;;;;;13.49;53.56;101756.47;4906487;29;20044;-82
2022/01/06 11:05:57;;;;;;;8.50;2.28;;;;;;;12.95;53.14;101747.41;4912404;29;20043;-79
2022/01/06 11:08:29;;;;;;;10.20;2.63;;;;;;;12.39;54.68;101770.22;4884695;29;20092;-78
2022/01/06 11:13:36;;;;;;;8.90;1.38;;;;;;;12.28;57.95;101763.25;4902964;29;20519;-78
2022/01/06 11:16:02;;;;;;;10.15;1.95;;;;;;;12.47;55.20;101748.31;4906598;29;20032;-77
2022/01/06 11:18:28;;;;;;;11.35;1.80;;;;;;;12.37;55.69;101753.63;4903517;29;20036;-77
2022/01/06 11:21:15;;;;;;;8.48;2.17;;;;;;;12.02;57.82;101748.84;4916190;29;20403;-77
2022/01/06 11:23:41;;;;;;;10.88;2.00;;;;;;;12.23;58.40;101754.88;4908021;29;20076;-77
2022/01/06 11:26:11;;;;;;;8.60;2.60;;;;;;;11.92;56.98;101736.47;4910396;29;20597;-77
2022/01/06 11:28:37;;;;;;;11.10;2.33;;;;;;;11.09;58.53;101756.88;4907222;29;20028;-77
2022/01/06 11:31:15;;;;;;;8.23;2.45;;;;;;;10.94;61.32;101739.69;4901989;29;20040;-77
2022/01/06 11:33:43;;;;;;;9.52;2.28;;;;;;;11.51;59.75;101746.22;4901008;29;20468;-77
2022/01/06 11:36:31;;;;;;;9.75;1.65;;;;;;;11.14;59.80;101769.69;4916985;29;20048;-77